sensor_id;sensor_type;location;lat;lon;timestamp;pressure;altitude;pressure_sealevel;temperature;humidity
77778;BME280;66966;-34.746;138.604;2023-04-26T00:00:24;101742.41;;;25.18;23.35
77778;BME280;66966;-34.746;138.604;2023-04-26T00:02:50;101745.38;;;25.07;22.92
77778;BME280;66966;-34.746;138.604;2023-04-26T00:05:15;101741.91;;;25.26;23.09
77778;BME280;66966;-34.746;138.604;2023-04-26T00:07:40;101739.36;;;25.34;23.20
77778;BME280;66966;-34.746;138.604;2023-04-26T00:10:07;101741.75;;;25.20;22.87
77778;BME280;66966;-34.746;138.604;2023-04-26T00:12:31;101739.16;;;25.60;22.79
77778;BME280;66966;-34.746;138.604;2023-04-26T00:14:57;101735.31;;;25.69;22.83
77778;BME280;66966;-34.746;138.604;2023-04-26T00:17:23;101732.32;;;25.54;22.82
77778;BME280;66966;-34.746;138.604;2023-04-26T00:19:47;101723.54;;;25.91;22.63
77778;BME280;66966;-34.746;138.604;2023-04-26T00:22:12;101715.93;;;25.75;22.60
77778;BME280;66966;-34.746;138.604;2023-04-26T00:24:38;101710.44;;;25.58;22.56
77778;BME280;66966;-34.746;138.604;2023-04-26T00:27:03;101701.57;;;26.07;22.45
77778;BME280;66966;-34.746;138.604;2023-04-26T00:29:28;101694.35;;;25.81;22.38
77778;BME280;66966;-34.746;138.604;2023-04-26T00:31:53;101687.94;;;25.82;22.30
77778;BME280;66966;-34.746;138.604;2023-04-26T00:34:19;101684.02;;;25.98;22.35
77778;BME280;66966;-34.746;138.604;2023-04-26T00:36:44;101683.72;;;26.17;22.17
77778;BME280;66966;-34.746;138.604;2023-04-26T00:39:09;101673.99;;;26.16;21.67
77778;BME280;66966;-34.746;138.604;2023-04-26T00:41:34;101667.73;;;26.35;21.30
77778;BME280;66966;-34.746;138.604;2023-04-26T00:44:00;101667.66;;;26.28;21.50
77778;BME280;66966;-34.746;138.604;2023-04-26T00:46:25;101665.36;;;26.62;21.20
77778;BME280;66966;-34.746;138.604;2023-04-26T00:48:50;101653.61;;;26.41;21.33
77778;BME280;66966;-34.746;138.604;2023-04-26T00:51:16;101645.26;;;26.10;21.27
77778;BME280;66966;-34.746;138.604;2023-04-26T00:53:41;101633.34;;;26.66;21.02
77778;BME280;66966;-34.746;138.604;2023-04-26T00:56:07;101634.69;;;26.12;20.78
77778;BME280;66966;-34.746;138.604;2023-04-26T00:58:31;101634.14;;;26.51;20.59
77778;BME280;66966;-34.746;138.604;2023-04-26T01:00:56;101636.25;;;26.42;20.73
77778;BME280;66966;-34.746;138.604;2023-04-26T01:03:22;101639.28;;;26.56;20.90
77778;BME280;66966;-34.746;138.604;2023-04-26T01:05:47;101625.87;;;26.26;20.92
77778;BME280;66966;-34.746;138.604;2023-04-26T01:08:12;101619.92;;;26.55;20.77
77778;BME280;66966;-34.746;138.604;2023-04-26T01:10:37;101613.92;;;26.67;20.51
77778;BME280;66966;-34.746;138.604;2023-04-26T01:13:03;101609.76;;;26.78;20.64
77778;BME280;66966;-34.746;138.604;2023-04-26T01:15:28;101610.16;;;26.54;20.39
77778;BME280;66966;-34.746;138.604;2023-04-26T01:17:53;101602.08;;;26.59;20.45
77778;BME280;66966;-34.746;138.604;2023-04-26T01:20:18;101592.19;;;26.97;20.47
77778;BME280;66966;-34.746;138.604;2023-04-26T01:22:43;101586.02;;;27.09;20.18
77778;BME280;66966;-34.746;138.604;2023-04-26T01:25:11;101578.10;;;26.80;19.85
77778;BME280;66966;-34.746;138.604;2023-04-26T01:27:34;101576.87;;;26.71;19.83
77778;BME280;66966;-34.746;138.604;2023-04-26T01:29:59;101573.21;;;26.74;19.87
77778;BME280;66966;-34.746;138.604;2023-04-26T01:32:24;101574.58;;;26.99;20.06
77778;BME280;66966;-34.746;138.604;2023-04-26T01:34:49;101572.59;;;26.79;20.12
77778;BME280;66966;-34.746;138.604;2023-04-26T01:37:14;101560.39;;;26.91;19.92
77778;BME280;66966;-34.746;138.604;2023-04-26T01:39:40;101562.94;;;27.03;19.89
77778;BME280;66966;-34.746;138.604;2023-04-26T01:42:05;101562.01;;;27.37;19.80
77778;BME280;66966;-34.746;138.604;2023-04-26T01:44:30;101559.91;;;26.96;19.74
77778;BME280;66966;-34.746;138.604;2023-04-26T01:46:55;101561.62;;;27.25;19.43
77778;BME280;66966;-34.746;138.604;2023-04-26T01:49:20;101553.25;;;27.24;19.57
77778;BME280;66966;-34.746;138.604;2023-04-26T01:51:46;101551.15;;;27.22;19.60
77778;BME280;66966;-34.746;138.604;2023-04-26T01:54:11;101544.81;;;27.04;19.16
77778;BME280;66966;-34.746;138.604;2023-04-26T01:56:36;101544.06;;;27.20;19.58
77778;BME280;66966;-34.746;138.604;2023-04-26T01:59:01;101540.22;;;27.47;19.47
77778;BME280;66966;-34.746;138.604;2023-04-26T02:01:26;101531.80;;;27.33;19.59
77778;BME280;66966;-34.746;138.604;2023-04-26T02:03:52;101531.27;;;27.45;19.55
77778;BME280;66966;-34.746;138.604;2023-04-26T02:06:16;101526.82;;;27.20;19.47
77778;BME280;66966;-34.746;138.604;2023-04-26T02:08:42;101517.40;;;27.45;19.31
77778;BME280;66966;-34.746;138.604;2023-04-26T02:11:07;101520.53;;;27.07;19.40
77778;BME280;66966;-34.746;138.604;2023-04-26T02:13:32;101507.56;;;27.37;19.38
77778;BME280;66966;-34.746;138.604;2023-04-26T02:15:58;101496.91;;;27.31;19.25
77778;BME280;66966;-34.746;138.604;2023-04-26T02:18:22;101496.43;;;27.36;19.47
77778;BME280;66966;-34.746;138.604;2023-04-26T02:20:47;101500.44;;;27.07;19.35
77778;BME280;66966;-34.746;138.604;2023-04-26T02:23:13;101499.25;;;27.09;19.25
77778;BME280;66966;-34.746;138.604;2023-04-26T02:25:38;101501.06;;;27.42;19.18
77778;BME280;66966;-34.746;138.604;2023-04-26T02:28:04;101490.99;;;27.35;19.40
77778;BME280;66966;-34.746;138.604;2023-04-26T02:30:28;101487.51;;;27.45;19.41
77778;BME280;66966;-34.746;138.604;2023-04-26T02:32:54;101483.83;;;27.61;19.42
77778;BME280;66966;-34.746;138.604;2023-04-26T02:35:19;101481.65;;;27.86;19.38
77778;BME280;66966;-34.746;138.604;2023-04-26T02:37:44;101474.05;;;27.48;19.13
77778;BME280;66966;-34.746;138.604;2023-04-26T02:40:10;101471.98;;;27.45;19.19
77778;BME280;66966;-34.746;138.604;2023-04-26T02:42:34;101466.11;;;27.76;19.35
77778;BME280;66966;-34.746;138.604;2023-04-26T02:44:59;101455.95;;;27.66;19.19
77778;BME280;66966;-34.746;138.604;2023-04-26T02:47:24;101450.97;;;27.83;18.97
77778;BME280;66966;-34.746;138.604;2023-04-26T02:49:50;101442.98;;;27.77;18.93
77778;BME280;66966;-34.746;138.604;2023-04-26T02:52:15;101441.30;;;27.64;19.30
77778;BME280;66966;-34.746;138.604;2023-04-26T02:54:40;101437.92;;;27.55;19.23
77778;BME280;66966;-34.746;138.604;2023-04-26T02:57:05;101425.86;;;28.11;19.29
77778;BME280;66966;-34.746;138.604;2023-04-26T02:59:30;101417.68;;;27.63;18.84
77778;BME280;66966;-34.746;138.604;2023-04-26T03:01:55;101415.47;;;27.70;18.64
77778;BME280;66966;-34.746;138.604;2023-04-26T03:04:21;101410.95;;;27.90;18.60
77778;BME280;66966;-34.746;138.604;2023-04-26T03:06:46;101403.37;;;27.54;18.78
77778;BME280;66966;-34.746;138.604;2023-04-26T03:09:11;101395.57;;;27.94;18.81
77778;BME280;66966;-34.746;138.604;2023-04-26T03:11:36;101391.08;;;28.08;18.99
77778;BME280;66966;-34.746;138.604;2023-04-26T03:14:01;101381.78;;;28.12;18.75
77778;BME280;66966;-34.746;138.604;2023-04-26T03:16:28;101370.62;;;28.44;18.82
77778;BME280;66966;-34.746;138.604;2023-04-26T03:18:52;101364.33;;;28.81;18.24
77778;BME280;66966;-34.746;138.604;2023-04-26T03:21:17;101370.76;;;28.61;18.42
77778;BME280;66966;-34.746;138.604;2023-04-26T03:23:42;101363.63;;;28.75;17.82
77778;BME280;66966;-34.746;138.604;2023-04-26T03:26:07;101358.60;;;28.80;17.74
77778;BME280;66966;-34.746;138.604;2023-04-26T03:28:32;101361.01;;;28.33;18.04
77778;BME280;66966;-34.746;138.604;2023-04-26T03:30:57;101367.36;;;28.28;18.09
77778;BME280;66966;-34.746;138.604;2023-04-26T03:33:22;101364.76;;;28.80;17.80
77778;BME280;66966;-34.746;138.604;2023-04-26T03:35:47;101352.81;;;28.88;17.83
77778;BME280;66966;-34.746;138.604;2023-04-26T03:38:13;101349.56;;;28.76;17.99
77778;BME280;66966;-34.746;138.604;2023-04-26T03:40:38;101342.29;;;28.78;18.04
77778;BME280;66966;-34.746;138.604;2023-04-26T03:43:03;101333.48;;;28.45;18.20
77778;BME280;66966;-34.746;138.604;2023-04-26T03:45:28;101310.34;;;29.03;18.17
77778;BME280;66966;-34.746;138.604;2023-04-26T03:47:53;101305.12;;;29.08;18.00
77778;BME280;66966;-34.746;138.604;2023-04-26T03:50:18;101294.68;;;29.01;18.03
77778;BME280;66966;-34.746;138.604;2023-04-26T03:52:44;101280.44;;;29.29;17.45
77778;BME280;66966;-34.746;138.604;2023-04-26T03:55:09;101263.35;;;29.49;17.53
77778;BME280;66966;-34.746;138.604;2023-04-26T03:57:34;101247.81;;;29.61;17.25
77778;BME280;66966;-34.746;138.604;2023-04-26T03:59:59;101235.88;;;29.71;16.83
77778;BME280;66966;-34.746;138.604;2023-04-26T04:02:24;101231.52;;;29.82;17.07
77778;BME280;66966;-34.746;138.604;2023-04-26T04:04:49;101223.95;;;30.18;16.78
77778;BME280;66966;-34.746;138.604;2023-04-26T04:07:14;101226.18;;;30.04;16.48
77778;BME280;66966;-34.746;138.604;2023-04-26T04:09:39;101223.70;;;29.80;16.48
77778;BME280;66966;-34.746;138.604;2023-04-26T04:12:05;101223.56;;;29.71;16.43
77778;BME280;66966;-34.746;138.604;2023-04-26T04:14:29;101227.86;;;29.52;16.69
77778;BME280;66966;-34.746;138.604;2023-04-26T04:16:55;101226.53;;;29.59;17.16
77778;BME280;66966;-34.746;138.604;2023-04-26T04:19:19;101224.10;;;29.65;16.85
77778;BME280;66966;-34.746;138.604;2023-04-26T04:21:45;101217.48;;;29.62;16.71
77778;BME280;66966;-34.746;138.604;2023-04-26T04:24:10;101206.51;;;29.77;16.61
77778;BME280;66966;-34.746;138.604;2023-04-26T04:26:35;101206.63;;;30.16;16.74
77778;BME280;66966;-34.746;138.604;2023-04-26T04:29:00;101203.78;;;30.24;16.61
77778;BME280;66966;-34.746;138.604;2023-04-26T04:31:25;101211.75;;;30.36;16.24
77778;BME280;66966;-34.746;138.604;2023-04-26T04:33:50;101199.74;;;30.80;16.33
77778;BME280;66966;-34.746;138.604;2023-04-26T04:36:15;101201.01;;;30.47;16.00
77778;BME280;66966;-34.746;138.604;2023-04-26T04:38:40;101197.87;;;30.66;16.10
77778;BME280;66966;-34.746;138.604;2023-04-26T04:41:06;101190.07;;;30.77;16.07
77778;BME280;66966;-34.746;138.604;2023-04-26T04:43:31;101196.52;;;30.93;15.81
77778;BME280;66966;-34.746;138.604;2023-04-26T04:45:56;101195.40;;;31.25;15.74
77778;BME280;66966;-34.746;138.604;2023-04-26T04:48:21;101187.35;;;30.88;15.80
77778;BME280;66966;-34.746;138.604;2023-04-26T04:50:46;101190.83;;;30.94;15.90
77778;BME280;66966;-34.746;138.604;2023-04-26T04:53:11;101186.09;;;31.09;15.77
77778;BME280;66966;-34.746;138.604;2023-04-26T04:55:36;101180.70;;;30.85;15.40
77778;BME280;66966;-34.746;138.604;2023-04-26T04:58:01;101187.89;;;30.84;15.57
77778;BME280;66966;-34.746;138.604;2023-04-26T05:00:26;101184.54;;;30.67;15.86
77778;BME280;66966;-34.746;138.604;2023-04-26T05:02:51;101177.46;;;30.89;15.90
77778;BME280;66966;-34.746;138.604;2023-04-26T05:05:17;101181.09;;;31.12;15.58
77778;BME280;66966;-34.746;138.604;2023-04-26T05:07:41;101186.60;;;30.97;15.66
77778;BME280;66966;-34.746;138.604;2023-04-26T05:10:07;101179.65;;;31.11;15.41
77778;BME280;66966;-34.746;138.604;2023-04-26T05:12:32;101183.75;;;31.29;15.44
77778;BME280;66966;-34.746;138.604;2023-04-26T05:14:57;101172.53;;;31.15;15.23
77778;BME280;66966;-34.746;138.604;2023-04-26T05:17:22;101174.96;;;30.97;15.41
77778;BME280;66966;-34.746;138.604;2023-04-26T05:19:47;101171.49;;;31.24;15.19
77778;BME280;66966;-34.746;138.604;2023-04-26T05:22:12;101170.73;;;31.06;15.36
77778;BME280;66966;-34.746;138.604;2023-04-26T05:24:37;101157.38;;;31.22;15.45
77778;BME280;66966;-34.746;138.604;2023-04-26T05:27:02;101168.33;;;30.99;15.32
77778;BME280;66966;-34.746;138.604;2023-04-26T05:29:29;101167.94;;;31.48;15.43
77778;BME280;66966;-34.746;138.604;2023-04-26T05:31:52;101161.90;;;30.83;15.24
77778;BME280;66966;-34.746;138.604;2023-04-26T05:34:17;101166.30;;;30.82;15.49
77778;BME280;66966;-34.746;138.604;2023-04-26T05:36:42;101159.56;;;30.67;15.69
77778;BME280;66966;-34.746;138.604;2023-04-26T05:39:07;101158.19;;;30.47;15.79
77778;BME280;66966;-34.746;138.604;2023-04-26T05:41:33;101150.05;;;30.46;16.16
77778;BME280;66966;-34.746;138.604;2023-04-26T05:43:57;101154.87;;;30.75;16.16
77778;BME280;66966;-34.746;138.604;2023-04-26T05:46:23;101151.97;;;30.93;15.91
77778;BME280;66966;-34.746;138.604;2023-04-26T05:48:48;101147.65;;;30.69;15.81
77778;BME280;66966;-34.746;138.604;2023-04-26T05:51:13;101155.94;;;30.74;15.58
77778;BME280;66966;-34.746;138.604;2023-04-26T05:53:38;101156.54;;;30.69;15.60
77778;BME280;66966;-34.746;138.604;2023-04-26T05:56:03;101155.37;;;30.64;15.51
77778;BME280;66966;-34.746;138.604;2023-04-26T05:58:28;101155.51;;;30.95;15.64
77778;BME280;66966;-34.746;138.604;2023-04-26T06:00:53;101147.90;;;31.01;15.66
77778;BME280;66966;-34.746;138.604;2023-04-26T06:03:18;101150.35;;;30.92;15.58
77778;BME280;66966;-34.746;138.604;2023-04-26T06:05:44;101144.99;;;30.95;15.66
77778;BME280;66966;-34.746;138.604;2023-04-26T06:08:09;101145.58;;;31.02;15.83
77778;BME280;66966;-34.746;138.604;2023-04-26T06:10:35;101142.40;;;30.83;15.44
77778;BME280;66966;-34.746;138.604;2023-04-26T06:12:59;101139.99;;;30.93;15.59
77778;BME280;66966;-34.746;138.604;2023-04-26T06:15:24;101134.91;;;30.93;15.59
77778;BME280;66966;-34.746;138.604;2023-04-26T06:17:49;101134.49;;;30.34;15.74
77778;BME280;66966;-34.746;138.604;2023-04-26T06:20:14;101139.45;;;30.49;15.65
77778;BME280;66966;-34.746;138.604;2023-04-26T06:22:39;101129.57;;;30.06;15.80
77778;BME280;66966;-34.746;138.604;2023-04-26T06:25:06;101131.61;;;30.05;16.02
77778;BME280;66966;-34.746;138.604;2023-04-26T06:27:29;101131.16;;;29.87;16.20
77778;BME280;66966;-34.746;138.604;2023-04-26T06:29:55;101126.64;;;29.72;16.29
77778;BME280;66966;-34.746;138.604;2023-04-26T06:32:19;101117.77;;;29.97;16.24
77778;BME280;66966;-34.746;138.604;2023-04-26T06:34:45;101114.80;;;30.26;16.32
77778;BME280;66966;-34.746;138.604;2023-04-26T06:37:10;101106.65;;;30.16;15.98
77778;BME280;66966;-34.746;138.604;2023-04-26T06:39:35;101096.17;;;30.19;15.94
77778;BME280;66966;-34.746;138.604;2023-04-26T06:42:01;101090.90;;;30.32;15.46
77778;BME280;66966;-34.746;138.604;2023-04-26T06:44:25;101086.54;;;30.38;15.28
77778;BME280;66966;-34.746;138.604;2023-04-26T06:46:53;101078.61;;;30.45;15.19
77778;BME280;66966;-34.746;138.604;2023-04-26T06:49:15;101080.39;;;30.29;15.36
77778;BME280;66966;-34.746;138.604;2023-04-26T06:51:40;101071.93;;;30.35;15.47
77778;BME280;66966;-34.746;138.604;2023-04-26T06:54:06;101064.34;;;30.31;15.32
77778;BME280;66966;-34.746;138.604;2023-04-26T06:56:30;101064.56;;;30.52;15.14
77778;BME280;66966;-34.746;138.604;2023-04-26T06:59:02;101068.35;;;30.24;15.22
77778;BME280;66966;-34.746;138.604;2023-04-26T07:01:21;101072.24;;;30.30;15.08
77778;BME280;66966;-34.746;138.604;2023-04-26T07:03:46;101068.98;;;30.21;15.21
77778;BME280;66966;-34.746;138.604;2023-04-26T07:06:11;101074.03;;;30.25;15.08
77778;BME280;66966;-34.746;138.604;2023-04-26T07:08:36;101076.77;;;30.34;15.13
77778;BME280;66966;-34.746;138.604;2023-04-26T07:11:01;101076.14;;;30.14;15.06
77778;BME280;66966;-34.746;138.604;2023-04-26T07:13:26;101076.18;;;30.28;15.22
77778;BME280;66966;-34.746;138.604;2023-04-26T07:15:51;101079.01;;;30.08;15.37
77778;BME280;66966;-34.746;138.604;2023-04-26T07:18:16;101079.62;;;29.81;15.38
77778;BME280;66966;-34.746;138.604;2023-04-26T07:20:41;101075.40;;;29.89;15.51
77778;BME280;66966;-34.746;138.604;2023-04-26T07:23:06;101071.20;;;29.64;15.56
77778;BME280;66966;-34.746;138.604;2023-04-26T07:25:31;101073.09;;;29.56;15.80
77778;BME280;66966;-34.746;138.604;2023-04-26T07:27:56;101071.75;;;29.31;15.93
77778;BME280;66966;-34.746;138.604;2023-04-26T07:30:22;101070.94;;;29.35;16.05
77778;BME280;66966;-34.746;138.604;2023-04-26T07:32:47;101073.10;;;29.21;15.94
77778;BME280;66966;-34.746;138.604;2023-04-26T07:35:12;101065.93;;;28.65;16.06
77778;BME280;66966;-34.746;138.604;2023-04-26T07:37:37;101061.71;;;28.71;16.24
77778;BME280;66966;-34.746;138.604;2023-04-26T07:40:02;101062.27;;;28.86;16.23
77778;BME280;66966;-34.746;138.604;2023-04-26T07:42:28;101055.51;;;28.46;16.36
77778;BME280;66966;-34.746;138.604;2023-04-26T07:44:52;101049.37;;;28.63;16.40
77778;BME280;66966;-34.746;138.604;2023-04-26T07:47:18;101048.40;;;28.41;16.32
77778;BME280;66966;-34.746;138.604;2023-04-26T07:49:43;101042.95;;;28.26;16.55
77778;BME280;66966;-34.746;138.604;2023-04-26T07:52:09;101052.07;;;28.42;16.50
77778;BME280;66966;-34.746;138.604;2023-04-26T07:54:33;101056.81;;;28.31;16.46
77778;BME280;66966;-34.746;138.604;2023-04-26T07:56:58;101059.79;;;28.33;16.46
77778;BME280;66966;-34.746;138.604;2023-04-26T07:59:24;101057.53;;;28.08;16.44
77778;BME280;66966;-34.746;138.604;2023-04-26T08:01:49;101064.07;;;28.15;16.58
77778;BME280;66966;-34.746;138.604;2023-04-26T08:04:14;101067.04;;;28.08;16.75
77778;BME280;66966;-34.746;138.604;2023-04-26T08:06:39;101069.81;;;28.09;16.73
77778;BME280;66966;-34.746;138.604;2023-04-26T08:09:04;101069.92;;;28.16;16.81
77778;BME280;66966;-34.746;138.604;2023-04-26T08:11:29;101070.88;;;27.91;16.92
77778;BME280;66966;-34.746;138.604;2023-04-26T08:13:54;101068.92;;;27.77;16.96
77778;BME280;66966;-34.746;138.604;2023-04-26T08:16:20;101068.26;;;27.68;17.06
77778;BME280;66966;-34.746;138.604;2023-04-26T08:18:45;101067.90;;;27.66;17.03
77778;BME280;66966;-34.746;138.604;2023-04-26T08:21:10;101070.32;;;27.55;17.16
77778;BME280;66966;-34.746;138.604;2023-04-26T08:23:36;101072.40;;;27.78;17.17
77778;BME280;66966;-34.746;138.604;2023-04-26T08:26:00;101072.06;;;27.93;17.31
77778;BME280;66966;-34.746;138.604;2023-04-26T08:28:26;101076.34;;;27.42;17.24
77778;BME280;66966;-34.746;138.604;2023-04-26T08:30:51;101076.04;;;27.66;17.23
77778;BME280;66966;-34.746;138.604;2023-04-26T08:33:18;101074.92;;;27.85;17.17
77778;BME280;66966;-34.746;138.604;2023-04-26T08:35:41;101075.86;;;27.51;17.33
77778;BME280;66966;-34.746;138.604;2023-04-26T08:38:07;101087.08;;;27.46;17.30
77778;BME280;66966;-34.746;138.604;2023-04-26T08:40:32;101081.52;;;27.50;17.29
77778;BME280;66966;-34.746;138.604;2023-04-26T08:42:57;101087.86;;;27.63;17.32
77778;BME280;66966;-34.746;138.604;2023-04-26T08:45:23;101082.66;;;27.24;17.42
77778;BME280;66966;-34.746;138.604;2023-04-26T08:47:49;101079.99;;;27.20;17.46
77778;BME280;66966;-34.746;138.604;2023-04-26T08:50:14;101077.10;;;27.17;17.50
77778;BME280;66966;-34.746;138.604;2023-04-26T08:52:38;101083.34;;;26.87;17.52
77778;BME280;66966;-34.746;138.604;2023-04-26T08:55:05;101084.33;;;27.28;17.57
77778;BME280;66966;-34.746;138.604;2023-04-26T08:57:30;101085.45;;;27.22;17.64
77778;BME280;66966;-34.746;138.604;2023-04-26T08:59:54;101083.83;;;27.18;17.64
77778;BME280;66966;-34.746;138.604;2023-04-26T09:02:20;101085.99;;;27.15;17.71
77778;BME280;66966;-34.746;138.604;2023-04-26T09:04:44;101087.07;;;27.13;17.68
77778;BME280;66966;-34.746;138.604;2023-04-26T09:07:11;101089.79;;;26.98;17.80
77778;BME280;66966;-34.746;138.604;2023-04-26T09:09:37;101092.64;;;27.17;17.91
77778;BME280;66966;-34.746;138.604;2023-04-26T09:12:00;101100.63;;;27.01;17.98
77778;BME280;66966;-34.746;138.604;2023-04-26T09:14:25;101099.45;;;26.78;17.87
77778;BME280;66966;-34.746;138.604;2023-04-26T09:16:50;101099.17;;;26.68;17.97
77778;BME280;66966;-34.746;138.604;2023-04-26T09:19:15;101099.34;;;26.86;18.03
77778;BME280;66966;-34.746;138.604;2023-04-26T09:21:43;101095.38;;;26.83;18.02
77778;BME280;66966;-34.746;138.604;2023-04-26T09:24:05;101096.46;;;26.87;18.03
77778;BME280;66966;-34.746;138.604;2023-04-26T09:26:31;101099.19;;;26.79;18.07
77778;BME280;66966;-34.746;138.604;2023-04-26T09:29:11;101097.99;;;26.77;18.17
77778;BME280;66966;-34.746;138.604;2023-04-26T09:31:37;101100.24;;;27.27;18.20
77778;BME280;66966;-34.746;138.604;2023-04-26T09:33:58;101105.33;;;26.75;18.15
77778;BME280;66966;-34.746;138.604;2023-04-26T09:36:12;101106.13;;;26.69;18.26
77778;BME280;66966;-34.746;138.604;2023-04-26T09:38:43;101108.97;;;26.63;18.26
77778;BME280;66966;-34.746;138.604;2023-04-26T09:41:02;101109.36;;;26.33;18.34
77778;BME280;66966;-34.746;138.604;2023-04-26T09:43:27;101109.19;;;26.51;18.45
77778;BME280;66966;-34.746;138.604;2023-04-26T09:45:54;101108.66;;;26.51;18.43
77778;BME280;66966;-34.746;138.604;2023-04-26T09:48:20;101103.93;;;26.47;18.46
77778;BME280;66966;-34.746;138.604;2023-04-26T09:50:44;101105.43;;;26.63;18.57
77778;BME280;66966;-34.746;138.604;2023-04-26T09:53:08;101109.15;;;26.55;18.60
77778;BME280;66966;-34.746;138.604;2023-04-26T09:55:33;101108.52;;;26.46;18.69
77778;BME280;66966;-34.746;138.604;2023-04-26T09:57:59;101113.54;;;26.67;18.71
77778;BME280;66966;-34.746;138.604;2023-04-26T10:00:24;101120.88;;;26.12;18.81
77778;BME280;66966;-34.746;138.604;2023-04-26T10:02:50;101121.45;;;26.59;18.77
77778;BME280;66966;-34.746;138.604;2023-04-26T10:05:14;101126.51;;;26.48;18.90
77778;BME280;66966;-34.746;138.604;2023-04-26T10:07:40;101127.49;;;26.50;18.96
77778;BME280;66966;-34.746;138.604;2023-04-26T10:10:05;101129.38;;;26.43;19.04
77778;BME280;66966;-34.746;138.604;2023-04-26T10:12:30;101128.50;;;26.42;19.08
77778;BME280;66966;-34.746;138.604;2023-04-26T10:14:56;101125.31;;;26.34;19.15
77778;BME280;66966;-34.746;138.604;2023-04-26T10:17:21;101124.12;;;24.92;19.19
77778;BME280;66966;-34.746;138.604;2023-04-26T10:19:48;101119.43;;;26.11;18.97
77778;BME280;66966;-34.746;138.604;2023-04-26T10:22:16;101120.15;;;26.42;19.11
77778;BME280;66966;-34.746;138.604;2023-04-26T10:24:37;101121.64;;;26.06;19.21
77778;BME280;66966;-34.746;138.604;2023-04-26T10:27:03;101123.60;;;26.25;19.30
77778;BME280;66966;-34.746;138.604;2023-04-26T10:32:05;101112.95;;;26.02;19.49
77778;BME280;66966;-34.746;138.604;2023-04-26T10:34:21;101112.42;;;25.93;19.63
77778;BME280;66966;-34.746;138.604;2023-04-26T10:39:18;101111.85;;;25.89;19.73
77778;BME280;66966;-34.746;138.604;2023-04-26T10:41:36;101104.05;;;25.83;19.85
77778;BME280;66966;-34.746;138.604;2023-04-26T10:44:35;101102.91;;;25.77;19.87
77778;BME280;66966;-34.746;138.604;2023-04-26T10:46:33;101098.78;;;25.82;19.90
77778;BME280;66966;-34.746;138.604;2023-04-26T10:48:49;101104.44;;;25.69;20.01
77778;BME280;66966;-34.746;138.604;2023-04-26T10:51:14;101101.88;;;25.70;20.06
77778;BME280;66966;-34.746;138.604;2023-04-26T10:56:05;101096.78;;;25.68;20.13
77778;BME280;66966;-34.746;138.604;2023-04-26T10:58:31;101092.35;;;25.73;20.12
77778;BME280;66966;-34.746;138.604;2023-04-26T11:01:04;101090.22;;;26.17;20.18
77778;BME280;66966;-34.746;138.604;2023-04-26T11:03:23;101084.85;;;25.67;20.23
77778;BME280;66966;-34.746;138.604;2023-04-26T11:05:53;101082.91;;;25.65;20.28
77778;BME280;66966;-34.746;138.604;2023-04-26T11:08:15;101086.20;;;25.89;20.32
77778;BME280;66966;-34.746;138.604;2023-04-26T11:10:38;101079.12;;;25.62;20.31
77778;BME280;66966;-34.746;138.604;2023-04-26T11:13:02;101077.28;;;25.74;20.47
77778;BME280;66966;-34.746;138.604;2023-04-26T11:15:27;101072.90;;;25.43;20.53
77778;BME280;66966;-34.746;138.604;2023-04-26T11:17:52;101074.02;;;25.42;20.56
77778;BME280;66966;-34.746;138.604;2023-04-26T11:20:17;101073.37;;;25.35;20.67
77778;BME280;66966;-34.746;138.604;2023-04-26T11:22:43;101075.43;;;25.34;20.70
77778;BME280;66966;-34.746;138.604;2023-04-26T11:25:08;101076.03;;;25.51;20.76
77778;BME280;66966;-34.746;138.604;2023-04-26T11:27:34;101073.60;;;25.44;20.80
77778;BME280;66966;-34.746;138.604;2023-04-26T11:30:02;101070.37;;;25.34;20.91
77778;BME280;66966;-34.746;138.604;2023-04-26T11:32:24;101068.57;;;25.29;20.96
77778;BME280;66966;-34.746;138.604;2023-04-26T11:34:49;101072.85;;;25.26;20.98
77778;BME280;66966;-34.746;138.604;2023-04-26T11:37:16;101074.72;;;25.52;21.06
77778;BME280;66966;-34.746;138.604;2023-04-26T11:39:40;101074.82;;;25.51;21.00
77778;BME280;66966;-34.746;138.604;2023-04-26T11:42:07;101071.20;;;25.31;21.15
77778;BME280;66966;-34.746;138.604;2023-04-26T11:44:30;101066.65;;;25.26;21.22
77778;BME280;66966;-34.746;138.604;2023-04-26T11:46:55;101067.10;;;25.30;21.16
77778;BME280;66966;-34.746;138.604;2023-04-26T11:49:21;101067.92;;;25.29;21.16
77778;BME280;66966;-34.746;138.604;2023-04-26T11:51:48;101063.49;;;25.33;21.15
77778;BME280;66966;-34.746;138.604;2023-04-26T11:54:12;101066.90;;;25.31;21.09
77778;BME280;66966;-34.746;138.604;2023-04-26T11:56:37;101062.05;;;25.30;21.09
77778;BME280;66966;-34.746;138.604;2023-04-26T11:59:02;101060.44;;;25.31;21.09
77778;BME280;66966;-34.746;138.604;2023-04-26T12:01:28;101053.60;;;25.30;21.09
77778;BME280;66966;-34.746;138.604;2023-04-26T12:03:55;101051.33;;;25.20;21.19
77778;BME280;66966;-34.746;138.604;2023-04-26T12:06:18;101049.42;;;25.34;21.09
77778;BME280;66966;-34.746;138.604;2023-04-26T12:08:49;101047.80;;;25.21;20.96
77778;BME280;66966;-34.746;138.604;2023-04-26T12:11:08;101048.47;;;24.94;21.02
77778;BME280;66966;-34.746;138.604;2023-04-26T12:13:34;101051.85;;;25.19;20.93
77778;BME280;66966;-34.746;138.604;2023-04-26T12:15:59;101051.83;;;25.43;21.06